createdAt,value
2018-06-16T00:00:15.692Z,100.00
2018-06-16T00:02:46.851Z,100.00
2018-06-16T00:05:18.731Z,100.00
2018-06-16T00:07:49.888Z,100.00
2018-06-16T00:10:21.011Z,100.00
2018-06-16T00:12:52.014Z,100.00
2018-06-16T00:15:23.393Z,100.00
2018-06-16T00:17:54.310Z,100.00
2018-06-16T00:20:25.168Z,100.00
2018-06-16T00:22:56.237Z,100.00
2018-06-16T00:25:27.322Z,100.00
2018-06-16T00:27:58.252Z,100.00
2018-06-16T00:30:30.558Z,100.00
2018-06-16T00:33:01.809Z,98.93
2018-06-16T00:35:32.947Z,98.58
2018-06-16T00:38:03.868Z,98.17
2018-06-16T00:40:35.694Z,98.09
2018-06-16T00:43:07.496Z,98.00
2018-06-16T00:45:38.870Z,96.88
2018-06-16T00:48:10.045Z,98.58
2018-06-16T00:50:41.070Z,97.34
2018-06-16T00:53:12.237Z,96.81
2018-06-16T00:55:43.458Z,96.69
2018-06-16T00:58:14.689Z,97.04
2018-06-16T01:00:46.888Z,97.84
2018-06-16T01:03:17.946Z,98.86
2018-06-16T01:05:50.068Z,98.79
2018-06-16T01:08:21.271Z,99.61
2018-06-16T01:10:52.459Z,98.64
2018-06-16T01:13:23.582Z,99.07
2018-06-16T01:15:54.603Z,97.41
2018-06-16T01:18:25.938Z,96.87
2018-06-16T01:20:57.374Z,97.04
2018-06-16T01:23:28.476Z,97.92
2018-06-16T01:25:59.372Z,97.65
2018-06-16T01:28:30.111Z,97.71
2018-06-16T01:31:01.318Z,98.14
2018-06-16T01:33:33.422Z,96.79
2018-06-16T01:36:04.471Z,94.84
2018-06-16T01:38:35.678Z,94.33
2018-06-16T01:41:06.598Z,94.99
2018-06-16T01:43:37.648Z,95.23
2018-06-16T01:46:08.750Z,94.07
2018-06-16T01:48:39.823Z,95.25
2018-06-16T01:51:11.121Z,95.33
2018-06-16T01:53:42.223Z,95.54
2018-06-16T01:56:14.319Z,95.99
2018-06-16T01:58:46.211Z,96.41
2018-06-16T02:01:18.318Z,95.63
2018-06-16T02:03:49.278Z,95.85
2018-06-16T02:06:21.403Z,95.27
2018-06-16T02:08:52.561Z,94.82
2018-06-16T02:11:23.848Z,95.81
2018-06-16T02:13:55.165Z,95.77
2018-06-16T02:16:26.149Z,96.20
2018-06-16T02:18:57.117Z,97.23
2018-06-16T02:21:28.054Z,95.84
2018-06-16T02:23:59.123Z,95.05
2018-06-16T02:26:30.382Z,94.59
2018-06-16T02:29:01.531Z,93.55
2018-06-16T02:31:34.564Z,93.33
2018-06-16T02:34:05.552Z,94.99
2018-06-16T02:36:36.712Z,93.95
2018-06-16T02:39:09.830Z,93.19
2018-06-16T02:41:40.997Z,93.36
2018-06-16T02:44:12.422Z,94.27
2018-06-16T02:46:43.996Z,94.11
2018-06-16T02:49:15.009Z,94.17
2018-06-16T02:51:46.283Z,94.34
2018-06-16T02:54:17.248Z,93.07
2018-06-16T02:56:49.255Z,92.46
2018-06-16T02:59:20.598Z,93.64
2018-06-16T03:01:51.765Z,93.38
2018-06-16T03:04:23.841Z,91.78
2018-06-16T03:06:55.537Z,90.48
2018-06-16T03:09:26.583Z,90.04
2018-06-16T03:11:58.548Z,86.65
2018-06-16T03:14:29.752Z,81.39
2018-06-16T03:17:00.667Z,77.05
2018-06-16T03:19:32.414Z,71.29
2018-06-16T03:22:03.565Z,67.15
2018-06-16T03:24:34.774Z,63.25
2018-06-16T03:27:06.745Z,60.07
2018-06-16T03:29:37.755Z,57.70
2018-06-16T03:32:08.773Z,55.44
2018-06-16T03:34:39.896Z,51.18
2018-06-16T03:37:11.673Z,48.59
2018-06-16T03:39:42.749Z,47.64
2018-06-16T03:42:15.167Z,46.21
2018-06-16T03:44:46.343Z,45.81
2018-06-16T03:47:17.340Z,44.90
2018-06-16T03:49:48.397Z,44.43
2018-06-16T03:52:19.856Z,43.49
2018-06-16T03:54:50.972Z,44.79
2018-06-16T03:57:23.678Z,43.60
2018-06-16T03:59:54.792Z,42.66
2018-06-16T04:02:26.571Z,44.86
2018-06-16T04:04:57.672Z,45.39
2018-06-16T04:07:28.849Z,47.39
2018-06-16T04:10:00.952Z,47.61
2018-06-16T04:12:33.785Z,45.74
2018-06-16T04:15:04.759Z,47.60
2018-06-16T04:17:35.846Z,45.97
2018-06-16T04:20:07.152Z,48.78
2018-06-16T04:22:38.170Z,50.58
2018-06-16T04:25:09.649Z,49.03
2018-06-16T04:27:41.721Z,51.54
2018-06-16T04:30:12.820Z,47.90
2018-06-16T04:32:43.733Z,46.42
2018-06-16T04:35:15.035Z,46.82
2018-06-16T04:37:46.190Z,43.89
2018-06-16T04:40:17.243Z,45.33
2018-06-16T04:42:48.279Z,45.96
2018-06-16T04:45:19.307Z,45.74
2018-06-16T04:47:50.300Z,44.94
2018-06-16T04:50:20.905Z,41.66
2018-06-16T04:52:52.455Z,39.46
2018-06-16T04:55:23.638Z,39.55
2018-06-16T04:57:54.940Z,40.05
2018-06-16T05:00:26.354Z,38.86
2018-06-16T05:02:57.409Z,36.45
2018-06-16T05:05:28.567Z,37.21
2018-06-16T05:07:59.577Z,35.82
2018-06-16T05:10:30.695Z,34.33
2018-06-16T05:13:01.730Z,35.85
2018-06-16T05:15:32.898Z,37.54
2018-06-16T05:18:05.327Z,36.61
2018-06-16T05:20:36.366Z,38.15
2018-06-16T05:23:08.313Z,37.88
2018-06-16T05:25:39.798Z,40.40
2018-06-16T05:28:11.052Z,42.86
2018-06-16T05:30:43.230Z,38.14
2018-06-16T05:33:14.607Z,35.54
2018-06-16T05:35:45.773Z,33.67
2018-06-16T05:38:17.856Z,35.84
2018-06-16T05:40:48.972Z,38.51
2018-06-16T05:43:20.621Z,37.05
2018-06-16T05:45:51.730Z,32.97
2018-06-16T05:48:23.115Z,35.49
2018-06-16T05:50:54.386Z,33.83
2018-06-16T05:53:25.269Z,33.58
2018-06-16T05:55:56.488Z,32.12
2018-06-16T05:58:27.508Z,33.39
2018-06-16T06:00:58.479Z,31.88
2018-06-16T06:03:30.385Z,32.40
2018-06-16T06:06:01.617Z,33.68
2018-06-16T06:08:32.906Z,32.68
2018-06-16T06:11:04.630Z,27.81
2018-06-16T06:13:36.442Z,26.19
2018-06-16T06:16:07.713Z,26.01
2018-06-16T06:18:39.191Z,24.81
2018-06-16T06:21:10.991Z,26.36
2018-06-16T06:23:42.302Z,31.71
2018-06-16T06:26:13.505Z,32.12
2018-06-16T06:28:45.460Z,32.59
2018-06-16T06:31:16.581Z,32.89
2018-06-16T06:33:47.779Z,31.77
2018-06-16T06:36:18.654Z,30.55
2018-06-16T06:38:49.900Z,29.93
2018-06-16T06:41:21.768Z,26.85
2018-06-16T06:43:53.311Z,27.71
2018-06-16T06:46:26.144Z,27.80
2018-06-16T06:48:57.205Z,26.07
2018-06-16T06:51:29.418Z,27.39
2018-06-16T06:54:00.864Z,27.53
2018-06-16T06:56:32.562Z,26.75
2018-06-16T06:59:03.896Z,26.19
2018-06-16T07:01:35.154Z,26.60
2018-06-16T07:04:07.202Z,26.49
2018-06-16T07:06:38.541Z,26.28
2018-06-16T07:09:11.392Z,25.88
2018-06-16T07:11:42.860Z,26.80
2018-06-16T07:14:14.579Z,27.29
2018-06-16T07:16:46.369Z,25.91
2018-06-16T07:19:18.036Z,25.97
2018-06-16T07:21:49.138Z,25.10
2018-06-16T07:24:21.085Z,24.96
2018-06-16T07:26:52.156Z,25.77
2018-06-16T07:29:22.825Z,26.83
2018-06-16T07:31:53.437Z,26.80
2018-06-16T07:34:24.084Z,27.14
2018-06-16T07:36:54.714Z,28.17
2018-06-16T07:39:25.819Z,26.99
2018-06-16T07:41:56.954Z,26.02
2018-06-16T07:44:28.732Z,26.09
2018-06-16T07:46:59.867Z,26.17
2018-06-16T07:49:32.044Z,25.68
2018-06-16T07:52:02.939Z,25.78
2018-06-16T07:54:34.052Z,26.44
2018-06-16T07:57:05.111Z,25.69
2018-06-16T07:59:39.604Z,25.27
2018-06-16T08:02:10.584Z,26.52
2018-06-16T08:04:41.883Z,25.40
2018-06-16T08:07:13.246Z,27.19
2018-06-16T08:09:44.571Z,28.86
2018-06-16T08:12:15.644Z,33.21
2018-06-16T08:14:46.799Z,35.20
2018-06-16T08:17:17.913Z,37.32
2018-06-16T08:19:48.765Z,40.84
2018-06-16T08:22:20.072Z,44.22
2018-06-16T08:24:51.834Z,44.84
2018-06-16T08:27:23.181Z,48.09
2018-06-16T08:29:54.221Z,47.78
2018-06-16T08:32:25.130Z,48.54
2018-06-16T08:34:56.346Z,51.26
2018-06-16T08:37:27.336Z,53.21
2018-06-16T08:39:58.709Z,52.65
2018-06-16T08:42:29.841Z,51.51
2018-06-16T08:45:01.114Z,53.68
2018-06-16T08:47:33.380Z,52.58
2018-06-16T08:50:04.938Z,52.89
2018-06-16T08:52:36.078Z,52.40
2018-06-16T08:55:07.643Z,51.79
2018-06-16T08:57:38.733Z,51.31
2018-06-16T09:00:11.014Z,52.66
2018-06-16T09:02:42.789Z,53.30
2018-06-16T09:05:13.801Z,52.56
2018-06-16T09:07:44.757Z,54.42
2018-06-16T09:10:15.888Z,51.95
2018-06-16T09:12:46.850Z,52.07
2018-06-16T09:15:18.221Z,52.13
2018-06-16T09:17:49.458Z,50.00
2018-06-16T09:20:20.826Z,50.20
2018-06-16T09:22:52.242Z,49.85
2018-06-16T09:25:23.445Z,48.58
2018-06-16T09:27:54.658Z,48.47
2018-06-16T09:30:25.886Z,48.85
2018-06-16T09:32:57.143Z,50.42
2018-06-16T09:35:28.406Z,48.97
2018-06-16T09:37:59.712Z,48.70
2018-06-16T09:40:30.826Z,51.17
2018-06-16T09:43:01.961Z,49.73
2018-06-16T09:45:32.897Z,49.89
2018-06-16T09:48:04.804Z,49.77
2018-06-16T09:50:35.911Z,49.74
2018-06-16T09:53:08.016Z,51.81
2018-06-16T09:55:40.426Z,54.34
2018-06-16T09:58:11.626Z,54.25
2018-06-16T10:00:43.046Z,52.59
2018-06-16T10:03:14.331Z,53.55
2018-06-16T10:05:45.645Z,52.51
2018-06-16T10:08:16.947Z,50.88
2018-06-16T10:10:48.164Z,52.75
2018-06-16T10:13:19.219Z,50.60
2018-06-16T10:15:50.576Z,52.23
2018-06-16T10:18:23.441Z,52.65
2018-06-16T10:20:54.697Z,51.64
2018-06-16T10:23:25.831Z,52.29
2018-06-16T10:25:56.994Z,53.92
2018-06-16T10:28:28.010Z,52.55
2018-06-16T10:30:59.466Z,53.79
2018-06-16T10:33:31.324Z,53.40
2018-06-16T10:36:02.383Z,55.13
2018-06-16T10:38:34.330Z,56.44
2018-06-16T10:41:05.811Z,57.54
2018-06-16T10:43:37.635Z,55.93
2018-06-16T10:46:08.771Z,57.45
2018-06-16T10:48:39.812Z,55.96
2018-06-16T10:51:11.000Z,57.06
2018-06-16T10:53:44.144Z,58.13
2018-06-16T10:56:15.623Z,59.72
2018-06-16T10:58:47.869Z,60.47
2018-06-16T11:01:19.158Z,60.84
2018-06-16T11:03:49.995Z,62.05
2018-06-16T11:06:21.140Z,62.12
2018-06-16T11:08:52.394Z,62.51
2018-06-16T11:11:23.453Z,63.14
2018-06-16T11:13:54.313Z,61.51
2018-06-16T11:16:25.383Z,60.91
2018-06-16T11:18:56.560Z,61.06
2018-06-16T11:21:27.848Z,60.19
2018-06-16T11:24:00.666Z,61.24
2018-06-16T11:26:32.927Z,60.50
2018-06-16T11:29:04.082Z,63.37
2018-06-16T11:31:35.176Z,64.29
2018-06-16T11:34:06.272Z,65.91
2018-06-16T11:36:37.488Z,66.81
2018-06-16T11:39:11.822Z,66.66
2018-06-16T11:41:42.888Z,67.25
2018-06-16T11:44:14.128Z,67.45
2018-06-16T11:46:45.171Z,69.19
2018-06-16T11:49:16.349Z,70.11
2018-06-16T11:51:47.292Z,71.66
2018-06-16T11:54:19.522Z,70.97
2018-06-16T11:56:51.019Z,69.99
2018-06-16T11:59:21.943Z,68.87
2018-06-16T12:01:53.840Z,67.40
2018-06-16T12:04:25.095Z,67.33
2018-06-16T12:06:56.184Z,63.90
2018-06-16T12:09:29.922Z,61.92
2018-06-16T12:12:01.110Z,61.33
2018-06-16T12:14:32.458Z,61.83
2018-06-16T12:17:03.655Z,61.33
2018-06-16T12:19:36.213Z,62.87
2018-06-16T12:22:07.287Z,63.95
2018-06-16T12:24:38.389Z,65.90
2018-06-16T12:27:11.380Z,65.67
2018-06-16T12:29:42.439Z,66.94
2018-06-16T12:32:13.768Z,67.37
2018-06-16T12:34:45.191Z,66.12
2018-06-16T12:37:17.327Z,65.92
2018-06-16T12:39:48.615Z,65.87
2018-06-16T12:42:19.805Z,66.18
2018-06-16T12:44:50.980Z,65.31
2018-06-16T12:47:22.418Z,66.12
2018-06-16T12:49:53.498Z,65.77
2018-06-16T12:52:25.072Z,64.78
2018-06-16T12:54:56.435Z,68.27
2018-06-16T12:57:27.910Z,68.93
2018-06-16T13:00:00.268Z,69.16
2018-06-16T13:02:32.503Z,69.21
2018-06-16T13:05:03.452Z,68.57
2018-06-16T13:07:34.684Z,71.15
2018-06-16T13:10:06.025Z,71.04
2018-06-16T13:12:38.301Z,69.95
2018-06-16T13:15:09.514Z,70.25
2018-06-16T13:17:40.813Z,69.53
2018-06-16T13:20:12.082Z,70.95
2018-06-16T13:22:43.462Z,70.10
2018-06-16T13:25:14.584Z,69.87
2018-06-16T13:27:45.970Z,69.68
2018-06-16T13:30:16.981Z,71.66
2018-06-16T13:32:48.831Z,71.22
2018-06-16T13:35:19.973Z,71.69
2018-06-16T13:37:51.405Z,71.17
2018-06-16T13:40:22.453Z,72.24
2018-06-16T13:42:54.346Z,70.56
2018-06-16T13:45:25.574Z,71.39
2018-06-16T13:47:56.966Z,71.16
2018-06-16T13:50:27.943Z,70.65
2018-06-16T13:53:00.050Z,73.84
2018-06-16T13:55:31.668Z,74.75
2018-06-16T13:58:04.598Z,77.04
2018-06-16T14:00:36.756Z,78.94
2018-06-16T14:03:08.779Z,77.41
2018-06-16T14:05:39.933Z,78.69
2018-06-16T14:08:11.328Z,78.13
2018-06-16T14:10:44.090Z,76.50
2018-06-16T14:13:16.184Z,75.37
2018-06-16T14:15:47.252Z,74.95
2018-06-16T14:18:18.540Z,75.57
2018-06-16T14:20:50.287Z,75.40
2018-06-16T14:23:21.314Z,74.81
2018-06-16T14:25:53.500Z,73.94
2018-06-16T14:28:24.609Z,71.65
2018-06-16T14:30:55.650Z,71.67
2018-06-16T14:33:26.877Z,72.57
2018-06-16T14:35:58.090Z,70.27
2018-06-16T14:38:29.523Z,69.21
2018-06-16T14:41:01.308Z,67.40
2018-06-16T14:43:32.547Z,68.72
2018-06-16T14:46:03.404Z,70.29
2018-06-16T14:48:35.062Z,68.77
2018-06-16T14:51:06.236Z,67.73
2018-06-16T14:53:37.363Z,69.39
2018-06-16T14:56:08.468Z,68.86
2018-06-16T14:58:41.163Z,69.81
2018-06-16T15:01:12.882Z,70.10
2018-06-16T15:03:44.209Z,73.26
2018-06-16T15:06:16.771Z,73.76
2018-06-16T15:08:48.381Z,76.38
2018-06-16T15:11:28.233Z,76.32
2018-06-16T15:13:59.294Z,72.71
2018-06-16T15:16:31.323Z,75.63
2018-06-16T15:19:02.307Z,77.75
2018-06-16T15:21:42.862Z,77.08
2018-06-16T15:24:14.904Z,77.04
2018-06-16T15:26:52.108Z,76.28
2018-06-16T15:29:23.952Z,76.05
2018-06-16T15:31:55.323Z,75.01
2018-06-16T15:34:27.502Z,73.02
2018-06-16T15:36:59.184Z,74.95
2018-06-16T15:39:30.402Z,73.62
2018-06-16T15:42:01.985Z,74.84
2018-06-16T15:44:33.141Z,74.51
2018-06-16T15:47:04.680Z,75.19
2018-06-16T15:49:35.961Z,73.46
2018-06-16T15:52:08.831Z,71.93
2018-06-16T15:54:40.085Z,72.02
2018-06-16T15:57:11.181Z,71.25
2018-06-16T15:59:42.305Z,70.16
2018-06-16T16:05:00.000Z,66.41
2018-06-16T16:07:38.829Z,66.33
2018-06-16T16:10:10.800Z,64.51
2018-06-16T16:12:42.213Z,64.85
2018-06-16T16:15:13.781Z,64.63
2018-06-16T16:17:45.191Z,65.11
2018-06-16T16:20:28.359Z,64.96
2018-06-16T16:22:59.605Z,65.87
2018-06-16T16:28:10.257Z,66.23
2018-06-16T16:30:49.869Z,66.62
2018-06-16T16:33:24.433Z,64.91
2018-06-16T16:35:55.823Z,65.37
2018-06-16T16:38:26.571Z,63.75
2018-06-16T16:40:57.346Z,63.24
2018-06-16T16:43:28.103Z,63.17
2018-06-16T16:45:58.858Z,61.97
2018-06-16T16:48:38.386Z,61.87
2018-06-16T16:51:10.194Z,60.54
2018-06-16T16:53:42.087Z,60.55
2018-06-16T16:56:12.768Z,60.52
2018-06-16T16:58:43.502Z,59.51
2018-06-16T17:01:14.253Z,59.99
2018-06-16T17:03:55.586Z,58.73
2018-06-16T17:06:26.271Z,59.52
2018-06-16T17:08:58.762Z,61.93
2018-06-16T17:11:34.598Z,63.08
2018-06-16T17:14:10.557Z,62.67
2018-06-16T17:16:41.942Z,62.71
2018-06-16T17:19:12.976Z,62.92
2018-06-16T17:21:44.359Z,63.36
2018-06-16T17:24:20.655Z,62.44
2018-06-16T17:26:51.923Z,62.59
2018-06-16T17:29:24.689Z,63.35
2018-06-16T17:31:59.496Z,62.15
2018-06-16T17:34:37.124Z,63.32
2018-06-16T17:37:15.296Z,62.87
2018-06-16T17:39:47.252Z,64.40
2018-06-16T17:42:18.379Z,63.71
2018-06-16T17:44:59.000Z,64.28
2018-06-16T17:47:32.320Z,64.47
2018-06-16T17:50:10.956Z,63.99
2018-06-16T17:52:47.788Z,63.34
2018-06-16T17:55:25.062Z,62.40
2018-06-16T17:57:57.281Z,61.36
2018-06-16T18:00:30.409Z,60.57
2018-06-16T18:03:15.031Z,60.73
2018-06-16T18:05:52.790Z,60.02
2018-06-16T18:08:28.696Z,60.12
2018-06-16T18:11:02.637Z,61.61
2018-06-16T18:13:45.252Z,62.32
2018-06-16T18:16:23.199Z,63.44
2018-06-16T18:18:57.796Z,64.46
2018-06-16T18:21:28.535Z,64.52
2018-06-16T18:24:17.073Z,64.27
2018-06-16T18:26:51.173Z,64.12
2018-06-16T18:29:23.941Z,64.42
2018-06-16T18:32:03.544Z,64.33
2018-06-16T18:34:39.293Z,64.87
2018-06-16T18:37:16.637Z,64.35
2018-06-16T18:39:53.828Z,64.41
2018-06-16T18:42:24.904Z,64.27
2018-06-16T18:44:58.113Z,63.24
2018-06-16T18:47:32.989Z,63.12
2018-06-16T18:50:05.952Z,64.88
2018-06-16T18:52:38.206Z,64.07
2018-06-16T18:55:15.267Z,65.00
2018-06-16T18:57:57.514Z,66.64
2018-06-16T19:00:29.053Z,67.25
2018-06-16T19:03:02.859Z,67.16
2018-06-16T19:05:39.405Z,66.75
2018-06-16T19:08:11.490Z,65.90
2018-06-16T19:10:43.843Z,66.18
2018-06-16T19:13:18.790Z,65.87
2018-06-16T19:16:01.020Z,65.45
2018-06-16T19:18:41.221Z,65.50
2018-06-16T19:21:13.448Z,64.21
2018-06-16T19:23:49.679Z,62.26
2018-06-16T19:26:21.635Z,63.10
2018-06-16T19:28:58.539Z,64.18
2018-06-16T19:31:42.935Z,63.96
2018-06-16T19:34:21.858Z,64.58
2018-06-16T19:36:54.378Z,63.55
2018-06-16T19:39:30.478Z,63.56
2018-06-16T19:42:01.507Z,62.77
2018-06-16T19:44:44.892Z,62.88
2018-06-16T19:47:27.677Z,63.99
2018-06-16T19:49:58.737Z,63.61
2018-06-16T19:52:33.952Z,63.26
2018-06-16T19:55:10.549Z,62.36
2018-06-16T19:57:47.709Z,62.58
2018-06-16T20:00:27.847Z,62.82
2018-06-16T20:02:59.236Z,63.54
2018-06-16T20:05:30.431Z,65.60
2018-06-16T20:08:01.612Z,66.41
2018-06-16T20:13:09.896Z,67.35
2018-06-16T20:15:41.003Z,69.95
2018-06-16T20:18:17.656Z,71.51
2018-06-16T20:20:50.835Z,73.05
2018-06-16T20:23:22.046Z,74.90
2018-06-16T20:25:53.349Z,77.04
2018-06-16T20:28:24.901Z,78.32
2018-06-16T20:31:12.455Z,79.41
2018-06-16T20:33:44.449Z,80.27
2018-06-16T20:36:19.353Z,81.21
2018-06-16T20:38:50.612Z,81.94
2018-06-16T20:41:21.695Z,82.70
2018-06-16T20:46:45.995Z,85.30
2018-06-16T20:49:17.072Z,85.39
2018-06-16T20:51:56.284Z,85.97
2018-06-16T20:54:28.587Z,85.95
2018-06-16T20:57:01.788Z,87.40
2018-06-16T20:59:32.973Z,87.37
2018-06-16T21:02:04.228Z,87.04
2018-06-16T21:04:35.792Z,87.24
2018-06-16T21:07:08.138Z,87.58
2018-06-16T21:09:39.581Z,88.50
2018-06-16T21:12:20.550Z,88.45
2018-06-16T21:14:51.648Z,87.95
2018-06-16T21:17:23.457Z,88.00
2018-06-16T21:19:55.586Z,88.17
2018-06-16T21:22:26.718Z,89.04
2018-06-16T21:24:57.982Z,88.98
2018-06-16T21:27:29.411Z,88.25
2018-06-16T21:30:01.785Z,88.29
2018-06-16T21:32:44.211Z,89.03
2018-06-16T21:35:15.477Z,88.87
2018-06-16T21:37:46.855Z,89.19
2018-06-16T21:40:17.851Z,89.14
2018-06-16T21:42:48.845Z,89.71
2018-06-16T21:45:19.678Z,89.57
2018-06-16T21:47:50.922Z,88.85
2018-06-16T21:50:22.451Z,89.13
2018-06-16T21:52:53.478Z,88.27
2018-06-16T21:55:24.372Z,87.98
2018-06-16T21:57:56.217Z,88.94
2018-06-16T22:00:31.550Z,89.16
2018-06-16T22:03:02.776Z,88.53
2018-06-16T22:05:34.060Z,88.54
2018-06-16T22:08:09.915Z,88.84
2018-06-16T22:10:41.300Z,89.06
2018-06-16T22:13:12.444Z,90.21
2018-06-16T22:15:44.557Z,90.34
2018-06-16T22:18:16.517Z,90.95
2018-06-16T22:20:49.362Z,91.32
2018-06-16T22:23:20.339Z,91.16
2018-06-16T22:25:52.291Z,91.62
2018-06-16T22:28:23.968Z,92.20
2018-06-16T22:30:56.147Z,92.17
2018-06-16T22:33:27.305Z,92.75
2018-06-16T22:35:58.484Z,93.09
2018-06-16T22:38:29.665Z,94.00
2018-06-16T22:41:00.628Z,94.06
2018-06-16T22:43:32.160Z,94.33
2018-06-16T22:46:03.429Z,94.94
2018-06-16T22:48:34.351Z,94.81
2018-06-16T22:51:05.512Z,95.97
2018-06-16T22:53:36.644Z,96.51
2018-06-16T22:58:38.121Z,97.72
2018-06-16T23:01:09.181Z,97.71
2018-06-16T23:03:40.084Z,98.53
2018-06-16T23:06:10.999Z,98.13
2018-06-16T23:08:41.960Z,98.79
2018-06-16T23:11:13.051Z,100.00
2018-06-16T23:13:45.155Z,100.00
2018-06-16T23:16:16.584Z,100.00
2018-06-16T23:18:47.612Z,100.00
2018-06-16T23:21:19.886Z,100.00
2018-06-16T23:23:50.853Z,100.00
2018-06-16T23:26:22.944Z,100.00
2018-06-16T23:28:53.977Z,100.00
2018-06-16T23:31:24.945Z,100.00
2018-06-16T23:33:55.950Z,100.00
2018-06-16T23:36:26.947Z,100.00
2018-06-16T23:38:58.172Z,100.00
2018-06-16T23:41:29.434Z,100.00
2018-06-16T23:44:00.611Z,100.00
2018-06-16T23:46:31.644Z,100.00
2018-06-16T23:49:02.725Z,100.00
2018-06-16T23:51:36.006Z,100.00
2018-06-16T23:54:07.195Z,100.00
2018-06-16T23:56:38.438Z,100.00
2018-06-16T23:59:09.653Z,100.00
